createdAt,value
2022-10-17T00:00:01.633Z,100
2022-10-17T00:01:01.642Z,100
2022-10-17T00:02:01.643Z,100
2022-10-17T00:03:01.726Z,100
2022-10-17T00:04:01.506Z,100
2022-10-17T00:05:02.575Z,100
2022-10-17T00:06:02.447Z,100
2022-10-17T00:07:02.524Z,100
2022-10-17T00:08:02.382Z,100
2022-10-17T00:09:02.483Z,100
2022-10-17T00:10:02.505Z,100
2022-10-17T00:11:02.607Z,100
2022-10-17T00:12:02.401Z,100
2022-10-17T00:13:02.449Z,100
2022-10-17T00:14:02.327Z,100
2022-10-17T00:15:02.434Z,100
2022-10-17T00:16:02.176Z,100
2022-10-17T00:17:02.325Z,100
2022-10-17T00:18:02.380Z,100
2022-10-17T00:19:02.810Z,100
2022-10-17T00:20:01.721Z,100
2022-10-17T00:21:01.534Z,100
2022-10-17T00:22:02.562Z,100
2022-10-17T00:23:02.398Z,100
2022-10-17T00:24:02.564Z,100
2022-10-17T00:25:02.310Z,100
2022-10-17T00:26:02.358Z,100
2022-10-17T00:27:02.214Z,100
2022-10-17T00:28:02.262Z,100
2022-10-17T00:29:02.140Z,100
2022-10-17T00:30:02.106Z,100
2022-10-17T00:31:02.159Z,100
2022-10-17T00:32:01.933Z,100
2022-10-17T00:33:01.954Z,100
2022-10-17T00:34:01.811Z,100
2022-10-17T00:35:01.803Z,100
2022-10-17T00:36:01.667Z,100
2022-10-17T00:37:01.663Z,100
2022-10-17T00:38:01.526Z,100
2022-10-17T00:39:02.556Z,100
2022-10-17T00:40:02.360Z,100
2022-10-17T00:41:02.417Z,100
2022-10-17T00:42:02.283Z,100
2022-10-17T00:43:02.315Z,100
2022-10-17T00:44:02.128Z,100
2022-10-17T00:45:02.206Z,100
2022-10-17T00:46:01.998Z,100
2022-10-17T00:47:01.632Z,100
2022-10-17T00:48:01.653Z,100
2022-10-17T00:49:01.487Z,100
2022-10-17T00:51:02.392Z,100
2022-10-17T00:52:02.472Z,100
2022-10-17T00:53:02.275Z,100
2022-10-17T00:54:02.318Z,100
2022-10-17T00:55:02.255Z,100
2022-10-17T00:56:02.200Z,100
2022-10-17T00:57:02.133Z,100
2022-10-17T00:58:02.000Z,100
2022-10-17T00:59:02.189Z,100
2022-10-17T01:00:02.041Z,100
2022-10-17T01:01:01.986Z,100
2022-10-17T01:02:01.967Z,100
2022-10-17T01:03:02.021Z,100
2022-10-17T01:04:01.844Z,100
2022-10-17T01:05:01.927Z,100
2022-10-17T01:06:01.751Z,100
2022-10-17T01:07:01.802Z,100
2022-10-17T01:08:01.575Z,100
2022-10-17T01:09:01.676Z,100
2022-10-17T01:10:02.592Z,100
2022-10-17T01:11:01.598Z,100
2022-10-17T01:12:01.718Z,100
2022-10-17T01:13:01.583Z,100
2022-10-17T01:14:01.626Z,100
2022-10-17T01:15:02.580Z,100
2022-10-17T01:16:02.386Z,100
2022-10-17T01:17:02.424Z,100
2022-10-17T01:18:02.522Z,100
2022-10-17T01:19:02.332Z,100
2022-10-17T01:20:02.428Z,100
2022-10-17T01:21:02.194Z,100
2022-10-17T01:22:02.252Z,100
2022-10-17T01:23:02.037Z,100
2022-10-17T01:24:02.044Z,100
2022-10-17T01:25:02.039Z,100
2022-10-17T01:26:01.900Z,100
2022-10-17T01:27:01.898Z,100
2022-10-17T01:28:01.735Z,100
2022-10-17T01:29:01.821Z,100
2022-10-17T01:30:01.635Z,100
2022-10-17T01:31:01.586Z,100
2022-10-17T01:32:02.500Z,100
2022-10-17T01:33:02.345Z,100
2022-10-17T01:34:02.403Z,100
2022-10-17T01:35:02.354Z,100
2022-10-17T01:36:06.154Z,100
2022-10-17T01:37:01.915Z,100
2022-10-17T01:38:02.035Z,100
2022-10-17T01:39:01.861Z,100
2022-10-17T01:40:02.035Z,100
2022-10-17T01:41:01.787Z,100
2022-10-17T01:42:01.876Z,100
2022-10-17T01:43:01.641Z,100
2022-10-17T01:44:01.662Z,100
2022-10-17T01:45:01.503Z,100
2022-10-17T01:46:02.567Z,100
2022-10-17T01:47:01.546Z,100
2022-10-17T01:48:02.632Z,100
2022-10-17T01:49:02.412Z,100
2022-10-17T01:50:02.501Z,100
2022-10-17T01:51:02.286Z,100
2022-10-17T01:52:02.318Z,100
2022-10-17T01:53:02.300Z,100
2022-10-17T01:54:02.126Z,100
2022-10-17T01:55:02.248Z,100
2022-10-17T01:56:01.936Z,100
2022-10-17T01:57:01.799Z,100
2022-10-17T01:58:01.994Z,100
2022-10-17T01:59:01.790Z,100
2022-10-17T02:00:01.944Z,100
2022-10-17T02:01:01.984Z,100
2022-10-17T02:02:01.886Z,100
2022-10-17T02:03:01.935Z,100
2022-10-17T02:04:01.807Z,100
2022-10-17T02:06:01.643Z,100
2022-10-17T02:07:01.675Z,100
2022-10-17T02:08:01.582Z,100
2022-10-17T02:09:01.643Z,100
2022-10-17T02:10:01.569Z,100
2022-10-17T02:11:02.663Z,100
2022-10-17T02:12:02.416Z,100
2022-10-17T02:13:02.499Z,100
2022-10-17T02:14:02.388Z,100
2022-10-17T02:15:02.371Z,100
2022-10-17T02:16:02.127Z,100
2022-10-17T02:17:02.024Z,100
2022-10-17T02:18:02.138Z,100
2022-10-17T02:19:01.890Z,100
2022-10-17T02:20:01.967Z,100
2022-10-17T02:21:01.792Z,100
2022-10-17T02:22:01.850Z,100
2022-10-17T02:23:01.656Z,100
2022-10-17T02:24:01.841Z,100
2022-10-17T02:25:01.645Z,100
2022-10-17T02:26:01.610Z,100
2022-10-17T02:27:01.539Z,100
2022-10-17T02:28:02.627Z,100
2022-10-17T02:29:02.500Z,100
2022-10-17T02:30:02.451Z,100
2022-10-17T02:31:02.286Z,100
2022-10-17T02:32:02.025Z,100
2022-10-17T02:33:02.121Z,100
2022-10-17T02:34:01.864Z,100
2022-10-17T02:35:01.945Z,100
2022-10-17T02:36:01.754Z,100
2022-10-17T02:37:01.758Z,100
2022-10-17T02:38:01.587Z,100
2022-10-17T02:39:01.685Z,100
2022-10-17T02:40:02.597Z,100
2022-10-17T02:41:02.418Z,100
2022-10-17T02:42:02.529Z,100
2022-10-17T02:43:02.353Z,100
2022-10-17T02:44:02.815Z,100
2022-10-17T02:45:01.519Z,100
2022-10-17T02:46:01.648Z,100
2022-10-17T02:47:02.434Z,100
2022-10-17T02:48:02.288Z,100
2022-10-17T02:49:02.287Z,100
2022-10-17T02:50:02.240Z,100
2022-10-17T02:51:02.085Z,100
2022-10-17T02:52:02.172Z,100
2022-10-17T02:53:01.965Z,100
2022-10-17T02:54:01.914Z,100
2022-10-17T02:55:01.992Z,100
2022-10-17T02:56:01.804Z,100
2022-10-17T02:57:01.843Z,100
2022-10-17T02:58:01.670Z,100
2022-10-17T02:59:01.695Z,100
2022-10-17T03:00:01.503Z,100
2022-10-17T03:01:02.639Z,100
2022-10-17T03:02:02.341Z,100
2022-10-17T03:03:02.346Z,100
2022-10-17T03:04:02.226Z,100
2022-10-17T03:05:02.292Z,100
2022-10-17T03:06:02.029Z,100
2022-10-17T03:07:01.961Z,100
2022-10-17T03:08:01.960Z,100
2022-10-17T03:09:01.918Z,100
2022-10-17T03:10:01.927Z,100
2022-10-17T03:11:01.766Z,100
2022-10-17T03:12:01.836Z,100
2022-10-17T03:13:01.652Z,100
2022-10-17T03:14:01.611Z,100
2022-10-17T03:15:01.512Z,100
2022-10-17T03:16:02.539Z,100
2022-10-17T03:17:02.310Z,100
2022-10-17T03:18:02.397Z,100
2022-10-17T03:19:02.196Z,100
2022-10-17T03:20:02.283Z,100
2022-10-17T03:21:02.052Z,100
2022-10-17T03:22:01.999Z,100
2022-10-17T03:23:02.122Z,100
2022-10-17T03:24:02.015Z,100
2022-10-17T03:25:02.269Z,100
2022-10-17T03:26:02.338Z,100
2022-10-17T03:27:02.187Z,100
2022-10-17T03:28:02.189Z,100
2022-10-17T03:29:02.334Z,100
2022-10-17T03:30:02.177Z,100
2022-10-17T03:31:02.252Z,100
2022-10-17T03:32:02.104Z,100
2022-10-17T03:33:02.028Z,100
2022-10-17T03:34:02.092Z,100
2022-10-17T03:35:01.953Z,100
2022-10-17T03:36:01.943Z,100
2022-10-17T03:37:02.052Z,100
2022-10-17T03:38:01.770Z,100
2022-10-17T03:39:01.876Z,100
2022-10-17T03:40:01.718Z,100
2022-10-17T03:41:01.657Z,100
2022-10-17T03:42:01.524Z,100
2022-10-17T03:43:01.674Z,100
2022-10-17T03:44:02.570Z,100
2022-10-17T03:45:02.395Z,100
2022-10-17T03:46:02.489Z,100
2022-10-17T03:47:02.331Z,100
2022-10-17T03:48:02.433Z,100
2022-10-17T03:49:02.222Z,100
2022-10-17T03:50:02.488Z,100
2022-10-17T03:51:02.346Z,100
2022-10-17T03:52:02.401Z,100
2022-10-17T03:53:02.240Z,100
2022-10-17T03:54:02.393Z,100
2022-10-17T03:55:02.163Z,100
2022-10-17T03:56:02.132Z,100
2022-10-17T03:57:02.009Z,100
2022-10-17T03:58:02.044Z,100
2022-10-17T03:59:01.997Z,100
2022-10-17T04:00:01.931Z,100
2022-10-17T04:01:02.105Z,100
2022-10-17T04:02:01.841Z,100
2022-10-17T04:03:01.881Z,100
2022-10-17T04:04:01.743Z,100
2022-10-17T04:05:01.707Z,100
2022-10-17T04:06:01.582Z,100
2022-10-17T04:07:01.626Z,100
2022-10-17T04:08:05.116Z,100
2022-10-17T04:09:01.872Z,100
2022-10-17T04:10:01.814Z,100
2022-10-17T04:11:01.727Z,100
2022-10-17T04:12:01.731Z,100
2022-10-17T04:13:01.525Z,100
2022-10-17T04:14:01.652Z,100
2022-10-17T04:15:02.586Z,100
2022-10-17T04:16:02.423Z,100
2022-10-17T04:17:02.334Z,100
2022-10-17T04:18:02.539Z,100
2022-10-17T04:19:02.365Z,100
2022-10-17T04:20:02.497Z,100
2022-10-17T04:21:02.374Z,100
2022-10-17T04:22:02.442Z,100
2022-10-17T04:23:02.237Z,100
2022-10-17T04:24:02.279Z,100
2022-10-17T04:25:02.070Z,100
2022-10-17T04:26:01.987Z,100
2022-10-17T04:27:02.044Z,100
2022-10-17T04:28:01.837Z,100
2022-10-17T04:29:01.813Z,100
2022-10-17T04:30:01.651Z,100
2022-10-17T04:31:01.650Z,100
2022-10-17T04:32:02.594Z,100
2022-10-17T04:33:02.377Z,100
2022-10-17T04:34:02.428Z,100
2022-10-17T04:35:02.285Z,100
2022-10-17T04:36:02.331Z,100
2022-10-17T04:37:02.270Z,100
2022-10-17T04:38:02.141Z,100
2022-10-17T04:39:02.300Z,100
2022-10-17T04:40:02.106Z,100
2022-10-17T04:41:02.020Z,100
2022-10-17T04:42:02.087Z,100
2022-10-17T04:43:01.968Z,100
2022-10-17T04:44:01.946Z,100
2022-10-17T04:45:02.020Z,100
2022-10-17T04:46:01.767Z,100
2022-10-17T04:47:01.732Z,100
2022-10-17T04:48:01.737Z,100
2022-10-17T04:49:01.558Z,100
2022-10-17T04:50:01.649Z,100
2022-10-17T04:51:02.555Z,100
2022-10-17T04:52:02.399Z,100
2022-10-17T04:53:02.441Z,100
2022-10-17T04:54:02.318Z,100
2022-10-17T04:55:02.364Z,100
2022-10-17T04:56:02.169Z,100
2022-10-17T04:57:02.199Z,100
2022-10-17T04:58:02.036Z,100
2022-10-17T04:59:01.978Z,100
2022-10-17T05:00:02.101Z,100
2022-10-17T05:01:02.304Z,100
2022-10-17T05:02:01.563Z,100
2022-10-17T05:03:01.626Z,100
2022-10-17T05:04:02.640Z,100
2022-10-17T05:05:02.492Z,100
2022-10-17T05:06:02.482Z,100
2022-10-17T05:07:02.342Z,100
2022-10-17T05:08:02.372Z,100
2022-10-17T05:09:02.183Z,100
2022-10-17T05:10:02.361Z,100
2022-10-17T05:11:02.255Z,100
2022-10-17T05:12:06.768Z,100
2022-10-17T05:13:02.104Z,100
2022-10-17T05:14:02.286Z,100
2022-10-17T05:15:02.084Z,100
2022-10-17T05:16:02.081Z,100
2022-10-17T05:17:02.148Z,100
2022-10-17T05:18:02.178Z,100
2022-10-17T05:19:02.020Z,100
2022-10-17T05:20:01.935Z,100
2022-10-17T05:21:01.914Z,100
2022-10-17T05:22:01.728Z,100
2022-10-17T05:23:01.765Z,100
2022-10-17T05:24:01.561Z,100
2022-10-17T05:25:01.638Z,100
2022-10-17T05:26:02.655Z,100
2022-10-17T05:27:02.582Z,100
2022-10-17T05:28:02.428Z,100
2022-10-17T05:29:02.407Z,100
2022-10-17T05:30:02.411Z,100
2022-10-17T05:31:02.207Z,100
2022-10-17T05:33:02.231Z,100
2022-10-17T05:34:02.047Z,100
2022-10-17T05:35:01.992Z,100
2022-10-17T05:36:01.950Z,100
2022-10-17T05:37:01.808Z,100
2022-10-17T05:38:01.917Z,100
2022-10-17T05:39:01.751Z,100
2022-10-17T05:40:01.643Z,100
2022-10-17T05:41:01.533Z,100
2022-10-17T05:42:02.542Z,100
2022-10-17T05:43:02.423Z,100
2022-10-17T05:44:05.916Z,100
2022-10-17T05:45:01.658Z,100
2022-10-17T05:46:01.689Z,100
2022-10-17T05:47:02.531Z,100
2022-10-17T05:48:02.388Z,100
2022-10-17T05:49:14.625Z,100
2022-10-17T05:50:01.555Z,100
2022-10-17T05:51:02.311Z,100
2022-10-17T05:52:02.090Z,100
2022-10-17T05:53:02.025Z,100
2022-10-17T05:54:02.123Z,100
2022-10-17T05:55:01.946Z,100
2022-10-17T05:56:02.017Z,100
2022-10-17T05:57:01.801Z,100
2022-10-17T05:58:01.799Z,100
2022-10-17T05:59:01.616Z,100
2022-10-17T06:00:01.642Z,100
2022-10-17T06:01:02.602Z,100
2022-10-17T06:02:02.010Z,100
2022-10-17T06:03:02.120Z,100
2022-10-17T06:04:01.935Z,100
2022-10-17T06:05:01.805Z,100
2022-10-17T06:06:01.894Z,100
2022-10-17T06:07:01.704Z,100
2022-10-17T06:08:02.415Z,100
2022-10-17T06:09:02.119Z,100
2022-10-17T06:10:02.097Z,100
2022-10-17T06:11:09.260Z,100
2022-10-17T06:12:02.517Z,100
2022-10-17T06:13:02.416Z,100
2022-10-17T06:14:02.462Z,100
2022-10-17T06:15:02.358Z,100
2022-10-17T06:16:02.341Z,100
2022-10-17T06:17:02.264Z,100
2022-10-17T06:18:02.102Z,100
2022-10-17T06:19:02.183Z,100
2022-10-17T06:20:01.967Z,100
2022-10-17T06:21:01.882Z,100
2022-10-17T06:22:01.996Z,100
2022-10-17T06:23:01.788Z,100
2022-10-17T06:24:01.885Z,100
2022-10-17T06:25:01.594Z,100
2022-10-17T06:26:01.613Z,100
2022-10-17T06:27:02.556Z,100
2022-10-17T06:28:02.401Z,100
2022-10-17T06:29:02.628Z,100
2022-10-17T06:30:02.483Z,100
2022-10-17T06:31:02.543Z,100
2022-10-17T06:32:02.061Z,100
2022-10-17T06:33:02.083Z,100
2022-10-17T06:34:01.947Z,100
2022-10-17T06:35:02.019Z,100
2022-10-17T06:36:01.772Z,100
2022-10-17T06:37:01.865Z,100
2022-10-17T06:38:01.579Z,100
2022-10-17T06:39:01.610Z,100
2022-10-17T06:40:02.600Z,100
2022-10-17T06:41:02.406Z,100
2022-10-17T06:42:02.511Z,100
2022-10-17T06:43:02.392Z,100
2022-10-17T06:44:02.419Z,100
2022-10-17T06:45:02.258Z,100
2022-10-17T06:46:02.284Z,100
2022-10-17T06:47:02.019Z,100
2022-10-17T06:48:01.948Z,100
2022-10-17T06:49:01.981Z,100
2022-10-17T06:50:01.834Z,100
2022-10-17T06:51:01.825Z,100
2022-10-17T06:52:01.652Z,100
2022-10-17T06:53:01.678Z,100
2022-10-17T06:54:01.498Z,100
2022-10-17T06:56:02.231Z,100
2022-10-17T06:57:02.306Z,100
2022-10-17T06:58:02.090Z,100
2022-10-17T06:59:02.007Z,100
2022-10-17T07:00:02.080Z,100
2022-10-17T07:01:02.191Z,100
2022-10-17T07:02:02.263Z,100
2022-10-17T07:03:02.470Z,100
2022-10-17T07:04:02.259Z,100
2022-10-17T07:05:02.335Z,100
2022-10-17T07:06:02.246Z,100
2022-10-17T07:07:02.113Z,100
2022-10-17T07:08:02.118Z,100
2022-10-17T07:09:01.957Z,100
2022-10-17T07:10:01.933Z,100
2022-10-17T07:11:02.047Z,100
2022-10-17T07:12:01.856Z,100
2022-10-17T07:13:01.876Z,100
2022-10-17T07:14:01.658Z,100
2022-10-17T07:15:01.785Z,100
2022-10-17T07:16:01.529Z,100
2022-10-17T07:17:01.524Z,100
2022-10-17T07:18:01.609Z,100
2022-10-17T07:19:02.627Z,100
2022-10-17T07:20:02.423Z,100
2022-10-17T07:21:02.368Z,100
2022-10-17T07:22:02.253Z,100
2022-10-17T07:23:02.283Z,100
2022-10-17T07:24:02.131Z,100
2022-10-17T07:25:02.023Z,100
2022-10-17T07:26:02.109Z,100
2022-10-17T07:27:01.913Z,100
2022-10-17T07:28:02.020Z,100
2022-10-17T07:29:02.057Z,100
2022-10-17T07:30:02.007Z,100
2022-10-17T07:31:02.054Z,100
2022-10-17T07:32:01.766Z,100
2022-10-17T07:33:01.790Z,100
2022-10-17T07:34:01.584Z,100
2022-10-17T07:35:01.632Z,100
2022-10-17T07:36:02.535Z,100
2022-10-17T07:37:02.452Z,100
2022-10-17T07:38:02.309Z,100
2022-10-17T07:39:02.406Z,100
2022-10-17T07:40:02.261Z,100
2022-10-17T07:41:02.399Z,100
2022-10-17T07:42:02.256Z,100
2022-10-17T07:43:02.325Z,100
2022-10-17T07:44:02.124Z,100
2022-10-17T07:45:02.209Z,100
2022-10-17T07:46:01.930Z,100
2022-10-17T07:47:01.677Z,100
2022-10-17T07:48:01.739Z,100
2022-10-17T07:49:01.539Z,100
2022-10-17T07:50:02.667Z,100
2022-10-17T07:51:02.408Z,100
2022-10-17T07:52:02.550Z,100
2022-10-17T07:53:02.368Z,100
2022-10-17T07:54:02.385Z,100
2022-10-17T07:55:02.222Z,100
2022-10-17T07:56:02.435Z,100
2022-10-17T07:57:02.228Z,100
2022-10-17T07:58:02.266Z,100
2022-10-17T07:59:09.124Z,100
2022-10-17T08:00:02.384Z,100
2022-10-17T08:02:01.846Z,100
2022-10-17T08:03:02.016Z,100
2022-10-17T08:04:01.753Z,100
2022-10-17T08:05:01.799Z,100
2022-10-17T08:06:01.533Z,100
2022-10-17T08:07:21.979Z,100
2022-10-17T08:08:01.884Z,100
2022-10-17T08:09:01.927Z,100
2022-10-17T08:10:01.868Z,100
2022-10-17T08:11:01.872Z,100
2022-10-17T08:12:01.736Z,100
2022-10-17T08:13:01.754Z,100
2022-10-17T08:14:01.578Z,100
2022-10-17T08:15:01.862Z,100
2022-10-17T08:16:01.630Z,100
2022-10-17T08:17:01.512Z,100
2022-10-17T08:18:02.517Z,100
2022-10-17T08:19:02.583Z,100
2022-10-17T08:20:02.580Z,100
2022-10-17T08:21:02.400Z,100
2022-10-17T08:22:02.469Z,100
2022-10-17T08:23:02.431Z,100
2022-10-17T08:24:02.516Z,100
2022-10-17T08:25:02.318Z,100
2022-10-17T08:26:02.420Z,100
2022-10-17T08:27:02.293Z,100
2022-10-17T08:28:02.435Z,100
2022-10-17T08:29:02.562Z,100
2022-10-17T08:30:01.516Z,100
2022-10-17T08:31:02.554Z,100
2022-10-17T08:32:04.555Z,100
2022-10-17T08:33:02.325Z,100
2022-10-17T08:34:02.311Z,100
2022-10-17T08:35:02.242Z,100
2022-10-17T08:36:02.135Z,100
2022-10-17T08:37:02.382Z,100
2022-10-17T08:38:02.314Z,100
2022-10-17T08:39:02.156Z,100
2022-10-17T08:40:02.191Z,100
2022-10-17T08:41:01.991Z,100
2022-10-17T08:42:02.076Z,100
2022-10-17T08:43:02.107Z,100
2022-10-17T08:44:01.962Z,100
2022-10-17T08:45:01.875Z,100
2022-10-17T08:46:02.122Z,100
2022-10-17T08:47:02.059Z,100
2022-10-17T08:48:02.011Z,100
2022-10-17T08:49:02.066Z,100
2022-10-17T08:50:01.984Z,100
2022-10-17T08:51:01.871Z,100
2022-10-17T08:52:01.907Z,100
2022-10-17T08:53:01.681Z,100
2022-10-17T08:54:01.742Z,100
2022-10-17T08:55:01.496Z,100
2022-10-17T08:56:02.559Z,100
2022-10-17T08:57:02.499Z,100
2022-10-17T08:58:02.576Z,100
2022-10-17T08:59:02.398Z,100
2022-10-17T09:00:02.446Z,100
2022-10-17T09:01:02.269Z,100
2022-10-17T09:02:01.786Z,100
2022-10-17T09:03:01.992Z,100
2022-10-17T09:04:01.925Z,100
2022-10-17T09:05:02.066Z,100
2022-10-17T09:06:01.793Z,100
2022-10-17T09:07:01.896Z,100
2022-10-17T09:08:01.666Z,100
2022-10-17T09:09:01.747Z,100
2022-10-17T09:10:01.516Z,100
2022-10-17T09:11:02.585Z,100
2022-10-17T09:12:02.431Z,100
2022-10-17T09:13:08.079Z,100
2022-10-17T09:14:01.846Z,100
2022-10-17T09:15:01.900Z,100
2022-10-17T09:16:01.740Z,100
2022-10-17T09:17:01.789Z,100
2022-10-17T09:18:01.803Z,100
2022-10-17T09:19:01.624Z,100
2022-10-17T09:20:01.611Z,98
2022-10-17T09:21:02.613Z,99
2022-10-17T09:22:01.502Z,100
2022-10-17T09:23:02.536Z,100
2022-10-17T09:24:15.696Z,96
2022-10-17T09:25:01.812Z,96
2022-10-17T09:26:01.859Z,95
2022-10-17T09:27:01.655Z,94
2022-10-17T09:28:01.750Z,95
2022-10-17T09:29:01.731Z,96
2022-10-17T09:30:01.683Z,94
2022-10-17T09:31:01.538Z,95
2022-10-17T09:32:01.720Z,91
2022-10-17T09:33:01.705Z,92
2022-10-17T09:34:01.543Z,92
2022-10-17T09:35:01.596Z,89
2022-10-17T09:36:02.517Z,91
2022-10-17T09:37:02.352Z,91
2022-10-17T09:38:02.395Z,91
2022-10-17T09:39:02.335Z,89
2022-10-17T09:40:02.423Z,88
2022-10-17T09:41:02.405Z,87
2022-10-17T09:42:03.178Z,86
2022-10-17T09:43:02.092Z,87
2022-10-17T09:44:02.141Z,87
2022-10-17T09:45:01.944Z,88
2022-10-17T09:46:02.082Z,85
2022-10-17T09:47:01.817Z,86
2022-10-17T09:48:02.297Z,83
2022-10-17T09:50:01.887Z,84
2022-10-17T09:51:25.897Z,85
2022-10-17T09:52:02.055Z,81
2022-10-17T09:53:01.965Z,81
2022-10-17T09:54:01.993Z,81
2022-10-17T09:55:01.829Z,82
2022-10-17T09:56:02.011Z,78
2022-10-17T09:57:01.788Z,75
2022-10-17T09:58:01.838Z,77
2022-10-17T09:59:01.624Z,78
2022-10-17T10:00:01.874Z,80
2022-10-17T10:01:01.892Z,85
2022-10-17T10:02:01.722Z,80
2022-10-17T10:03:01.830Z,81
2022-10-17T10:04:01.538Z,82
2022-10-17T10:05:06.845Z,82
2022-10-17T10:06:02.130Z,82
2022-10-17T10:07:02.047Z,78
2022-10-17T10:08:02.102Z,79
2022-10-17T10:09:02.015Z,79
2022-10-17T10:10:01.967Z,77
2022-10-17T10:11:01.961Z,77
2022-10-17T10:12:01.857Z,76
2022-10-17T10:13:02.033Z,76
2022-10-17T10:14:01.782Z,78
2022-10-17T10:15:01.827Z,75
2022-10-17T10:16:01.647Z,75
2022-10-17T10:17:01.538Z,75
2022-10-17T10:18:02.565Z,73
2022-10-17T10:19:08.472Z,73
2022-10-17T10:20:01.832Z,76
2022-10-17T10:21:01.836Z,76
2022-10-17T10:22:01.696Z,75
2022-10-17T10:23:01.761Z,73
2022-10-17T10:24:01.541Z,72
2022-10-17T10:25:02.619Z,72
2022-10-17T10:26:02.423Z,74
2022-10-17T10:27:02.564Z,75
2022-10-17T10:28:02.397Z,76
2022-10-17T10:29:02.721Z,76
2022-10-17T10:30:01.585Z,73
2022-10-17T10:31:01.661Z,75
2022-10-17T10:32:01.519Z,75
2022-10-17T10:33:02.560Z,75
2022-10-17T10:34:02.369Z,76
2022-10-17T10:35:02.520Z,74
2022-10-17T10:36:02.443Z,71
2022-10-17T10:37:02.429Z,73
2022-10-17T10:38:02.250Z,75
2022-10-17T10:39:04.936Z,71
2022-10-17T10:40:01.710Z,70
2022-10-17T10:41:01.630Z,73
2022-10-17T10:42:01.629Z,73
2022-10-17T10:43:05.852Z,74
2022-10-17T10:44:01.594Z,74
2022-10-17T10:45:01.617Z,71
2022-10-17T10:46:02.536Z,72
2022-10-17T10:47:02.338Z,72
2022-10-17T10:48:02.304Z,71
2022-10-17T10:49:02.331Z,73
2022-10-17T10:50:02.128Z,73
2022-10-17T10:51:02.169Z,74
2022-10-17T10:52:01.999Z,75
2022-10-17T10:53:01.874Z,76
2022-10-17T10:54:01.849Z,75
2022-10-17T10:55:01.659Z,75
2022-10-17T10:56:01.670Z,75
2022-10-17T10:57:01.629Z,75
2022-10-17T10:58:02.591Z,73
2022-10-17T10:59:02.396Z,74
2022-10-17T11:00:02.561Z,71
2022-10-17T11:01:02.451Z,72
2022-10-17T11:02:01.881Z,70
2022-10-17T11:03:02.281Z,71
2022-10-17T11:04:02.041Z,68
2022-10-17T11:05:01.997Z,70
2022-10-17T11:06:02.040Z,71
2022-10-17T11:07:01.829Z,74
2022-10-17T11:08:01.973Z,71
2022-10-17T11:09:01.824Z,75
2022-10-17T11:10:01.898Z,72
2022-10-17T11:11:01.714Z,70
2022-10-17T11:12:01.698Z,67
2022-10-17T11:13:01.519Z,67
2022-10-17T11:14:01.627Z,69
2022-10-17T11:15:02.565Z,68
2022-10-17T11:16:02.433Z,69
2022-10-17T11:17:02.431Z,66
2022-10-17T11:18:02.273Z,66
2022-10-17T11:19:02.250Z,67
2022-10-17T11:20:02.295Z,69
2022-10-17T11:21:02.121Z,66
2022-10-17T11:22:02.158Z,65
2022-10-17T11:23:01.936Z,66
2022-10-17T11:24:08.321Z,62
2022-10-17T11:25:01.874Z,63
2022-10-17T11:26:01.831Z,66
2022-10-17T11:27:01.706Z,64
2022-10-17T11:28:05.520Z,65
2022-10-17T11:29:02.543Z,65
2022-10-17T11:30:02.369Z,64
2022-10-17T11:31:07.793Z,66
2022-10-17T11:32:02.512Z,63
2022-10-17T11:33:01.659Z,64
2022-10-17T11:34:02.534Z,64
2022-10-17T11:35:02.427Z,65
2022-10-17T11:36:02.635Z,64
2022-10-17T11:37:02.416Z,63
2022-10-17T11:38:02.586Z,63
2022-10-17T11:39:02.379Z,63
2022-10-17T11:40:02.414Z,63
2022-10-17T11:41:02.315Z,62
2022-10-17T11:42:04.406Z,62
2022-10-17T11:43:02.157Z,61
2022-10-17T11:44:02.285Z,60
2022-10-17T11:45:02.088Z,63
2022-10-17T11:46:01.974Z,62
2022-10-17T11:47:01.966Z,63
2022-10-17T11:48:01.739Z,62
2022-10-17T11:49:01.821Z,64
2022-10-17T11:52:01.838Z,61
2022-10-17T11:52:02.194Z,63
2022-10-17T11:52:03.771Z,61
2022-10-17T11:53:02.269Z,60
2022-10-17T11:54:01.743Z,60
2022-10-17T11:55:01.518Z,61
2022-10-17T11:56:02.595Z,60
2022-10-17T11:57:02.399Z,60
2022-10-17T11:58:02.460Z,61
2022-10-17T11:59:02.374Z,62
2022-10-17T12:00:02.333Z,61
2022-10-17T12:01:02.276Z,61
2022-10-17T12:02:02.327Z,61
2022-10-17T12:03:02.112Z,62
2022-10-17T12:04:02.376Z,63
2022-10-17T12:05:02.225Z,62
2022-10-17T12:06:02.368Z,63
2022-10-17T12:07:02.162Z,64
2022-10-17T12:08:02.196Z,62
2022-10-17T12:09:01.971Z,63
2022-10-17T12:10:01.877Z,62
2022-10-17T12:11:01.932Z,62
2022-10-17T12:12:02.751Z,62
2022-10-17T12:13:01.737Z,63
2022-10-17T12:14:06.363Z,61
2022-10-17T12:15:02.054Z,61
2022-10-17T12:16:01.806Z,61
2022-10-17T12:17:02.014Z,61
2022-10-17T12:18:01.741Z,61
2022-10-17T12:19:01.755Z,62
2022-10-17T12:20:01.726Z,63
2022-10-17T12:21:01.696Z,62
2022-10-17T12:22:01.496Z,63
2022-10-17T12:23:02.610Z,63
2022-10-17T12:24:02.422Z,62
2022-10-17T12:25:02.632Z,63
2022-10-17T12:26:05.578Z,64
2022-10-17T12:27:02.396Z,62
2022-10-17T12:28:02.465Z,63
2022-10-17T12:29:02.436Z,63
2022-10-17T12:30:02.390Z,62
2022-10-17T12:31:02.007Z,62
2022-10-17T12:32:02.115Z,62
2022-10-17T12:33:07.908Z,61
2022-10-17T12:34:02.105Z,62
2022-10-17T12:35:02.081Z,62
2022-10-17T12:36:02.904Z,62
2022-10-17T12:37:01.596Z,62
2022-10-17T12:38:01.703Z,61
2022-10-17T12:39:01.628Z,62
2022-10-17T12:40:02.628Z,61
2022-10-17T12:41:02.465Z,62
2022-10-17T12:42:02.471Z,63
2022-10-17T12:43:02.299Z,62
2022-10-17T12:44:02.352Z,62
2022-10-17T12:45:02.298Z,62
2022-10-17T12:46:01.671Z,62
2022-10-17T12:47:02.113Z,62
2022-10-17T12:48:02.700Z,63
2022-10-17T12:49:01.699Z,62
2022-10-17T12:50:01.677Z,62
2022-10-17T12:51:35.990Z,61
2022-10-17T12:52:01.665Z,61
2022-10-17T12:53:01.738Z,61
2022-10-17T12:54:02.562Z,62
2022-10-17T12:55:14.352Z,62
2022-10-17T12:56:01.746Z,61
2022-10-17T12:57:01.852Z,60
2022-10-17T12:58:01.570Z,61
2022-10-17T12:59:01.579Z,61
2022-10-17T13:00:02.532Z,62
2022-10-17T13:01:24.851Z,62
2022-10-17T13:02:02.017Z,62
2022-10-17T13:03:01.898Z,62
2022-10-17T13:04:01.787Z,63
2022-10-17T13:05:01.859Z,63
2022-10-17T13:06:01.740Z,64
2022-10-17T13:07:02.071Z,64
2022-10-17T13:08:01.869Z,63
2022-10-17T13:09:05.471Z,63
2022-10-17T13:10:02.585Z,63
2022-10-17T13:11:02.374Z,63
2022-10-17T13:12:02.457Z,63
2022-10-17T13:13:02.299Z,64
2022-10-17T13:14:02.394Z,64
2022-10-17T13:15:02.276Z,66
2022-10-17T13:16:01.985Z,65
2022-10-17T13:17:02.043Z,68
2022-10-17T13:18:01.893Z,66
2022-10-17T13:19:01.873Z,66
2022-10-17T13:20:01.885Z,65
2022-10-17T13:21:01.746Z,66
2022-10-17T13:22:07.318Z,66
2022-10-17T13:23:02.189Z,65
2022-10-17T13:24:02.207Z,66
2022-10-17T13:25:02.042Z,65
2022-10-17T13:26:01.952Z,67
2022-10-17T13:27:01.932Z,67
2022-10-17T13:28:01.762Z,68
2022-10-17T13:29:02.222Z,67
2022-10-17T13:30:02.312Z,66
2022-10-17T13:31:02.043Z,67
2022-10-17T13:32:02.157Z,66
2022-10-17T13:33:01.939Z,65
2022-10-17T13:34:01.977Z,65
2022-10-17T13:35:01.815Z,65
2022-10-17T13:36:02.025Z,65
2022-10-17T13:37:01.748Z,66
2022-10-17T13:38:01.763Z,65
2022-10-17T13:39:01.506Z,65
2022-10-17T13:40:31.077Z,65
2022-10-17T13:41:34.606Z,65
2022-10-17T13:42:02.164Z,65
2022-10-17T13:43:02.257Z,65
2022-10-17T13:44:02.066Z,65
2022-10-17T13:45:01.968Z,65
2022-10-17T13:46:35.938Z,64
2022-10-17T13:47:01.980Z,64
2022-10-17T13:48:02.065Z,64
2022-10-17T13:49:01.895Z,63
2022-10-17T13:50:01.939Z,62
2022-10-17T13:51:04.527Z,61
2022-10-17T13:52:01.989Z,62
2022-10-17T13:53:02.028Z,61
2022-10-17T13:54:01.800Z,61
2022-10-17T13:55:01.825Z,59
2022-10-17T13:56:28.658Z,60
2022-10-17T13:57:01.896Z,60
2022-10-17T13:58:01.920Z,60
2022-10-17T13:59:01.657Z,60
2022-10-17T14:00:01.743Z,58
2022-10-17T14:01:02.688Z,59